createdAt,value
2019-05-29T00:00:25.407Z,99.99
2019-05-29T00:01:24.813Z,99.99
2019-05-29T00:02:24.981Z,99.99
2019-05-29T00:03:25.171Z,99.99
2019-05-29T00:04:25.325Z,99.99
2019-05-29T00:05:26.393Z,99.99
2019-05-29T00:06:25.660Z,99.99
2019-05-29T00:07:25.923Z,99.99
2019-05-29T00:08:25.940Z,99.99
2019-05-29T00:09:26.131Z,99.99
2019-05-29T00:10:26.286Z,99.99
2019-05-29T00:11:27.426Z,99.99
2019-05-29T00:12:26.691Z,99.99
2019-05-29T00:13:26.865Z,99.99
2019-05-29T00:14:27.935Z,99.99
2019-05-29T00:15:27.194Z,99.99
2019-05-29T00:16:27.364Z,99.99
2019-05-29T00:17:28.580Z,99.99
2019-05-29T00:18:27.734Z,99.99
2019-05-29T00:19:27.932Z,99.99
2019-05-29T00:20:28.105Z,99.99
2019-05-29T00:21:28.917Z,99.99
2019-05-29T00:22:28.476Z,99.99
2019-05-29T00:23:28.638Z,99.99
2019-05-29T00:24:28.838Z,99.99
2019-05-29T00:25:29.038Z,99.99
2019-05-29T00:26:29.222Z,99.99
2019-05-29T00:27:29.908Z,99.99
2019-05-29T00:29:03.826Z,99.99
2019-05-29T00:29:30.470Z,99.99
2019-05-29T00:31:03.857Z,99.99
2019-05-29T00:31:30.998Z,99.99
2019-05-29T00:32:30.284Z,99.99
2019-05-29T00:33:30.470Z,99.99
2019-05-29T00:34:31.473Z,99.99
2019-05-29T00:35:30.833Z,99.99
2019-05-29T00:36:30.998Z,99.99
2019-05-29T00:37:31.127Z,99.99
2019-05-29T00:38:31.263Z,99.99
2019-05-29T00:39:31.384Z,99.99
2019-05-29T00:40:31.508Z,99.99
2019-05-29T00:41:31.668Z,99.99
2019-05-29T00:42:31.781Z,99.99
2019-05-29T00:43:31.920Z,99.99
2019-05-29T00:44:34.557Z,99.99
2019-05-29T00:45:33.170Z,99.99
2019-05-29T00:46:32.387Z,99.99
2019-05-29T00:47:32.535Z,99.99
2019-05-29T00:48:32.689Z,99.99
2019-05-29T00:49:32.837Z,99.99
2019-05-29T00:50:34.971Z,99.99
2019-05-29T00:51:33.978Z,99.99
2019-05-29T00:52:33.339Z,99.99
2019-05-29T00:53:33.500Z,99.99
2019-05-29T00:54:34.479Z,99.99
2019-05-29T00:55:33.847Z,99.99
2019-05-29T00:56:34.013Z,99.99
2019-05-29T00:57:34.181Z,99.99
2019-05-29T00:58:34.487Z,99.99
2019-05-29T00:59:35.472Z,99.99
2019-05-29T01:00:34.744Z,99.99
2019-05-29T01:01:35.469Z,99.99
2019-05-29T01:03:07.555Z,99.99
2019-05-29T01:03:36.004Z,99.99
2019-05-29T01:04:36.503Z,99.99
2019-05-29T01:05:36.495Z,99.99
2019-05-29T01:06:36.891Z,99.99
2019-05-29T01:07:37.024Z,99.99
2019-05-29T01:08:36.206Z,99.99
2019-05-29T01:09:36.402Z,99.99
2019-05-29T01:10:36.571Z,99.99
2019-05-29T01:11:37.511Z,99.99
2019-05-29T01:12:36.919Z,99.99
2019-05-29T01:13:37.079Z,99.99
2019-05-29T01:14:49.677Z,99.99
2019-05-29T01:15:39.366Z,99.99
2019-05-29T01:16:37.598Z,99.99
2019-05-29T01:17:37.791Z,99.99
2019-05-29T01:18:37.950Z,99.99
2019-05-29T01:19:39.037Z,99.99
2019-05-29T01:20:38.281Z,99.99
2019-05-29T01:21:38.448Z,99.99
2019-05-29T01:22:38.618Z,99.99
2019-05-29T01:23:39.511Z,99.99
2019-05-29T01:24:39.021Z,99.99
2019-05-29T01:25:40.004Z,99.99
2019-05-29T01:26:39.282Z,99.99
2019-05-29T01:27:39.461Z,99.99
2019-05-29T01:28:39.604Z,99.99
2019-05-29T01:29:39.788Z,99.99
2019-05-29T01:30:39.927Z,99.99
2019-05-29T01:31:40.160Z,99.99
2019-05-29T01:32:40.309Z,99.99
2019-05-29T01:33:40.460Z,99.99
2019-05-29T01:34:40.631Z,99.99
2019-05-29T01:35:40.804Z,99.99
2019-05-29T01:37:16.015Z,99.99
2019-05-29T01:37:41.085Z,99.99
2019-05-29T01:38:41.559Z,99.99
2019-05-29T01:39:42.058Z,99.99
2019-05-29T01:40:41.589Z,99.99
2019-05-29T01:41:41.741Z,99.99
2019-05-29T01:42:41.888Z,99.99
2019-05-29T01:43:42.555Z,99.99
2019-05-29T01:44:42.213Z,99.99
2019-05-29T01:45:42.390Z,99.99
2019-05-29T01:46:42.562Z,99.99
2019-05-29T01:47:43.532Z,99.99
2019-05-29T01:48:43.073Z,99.99
2019-05-29T01:49:43.147Z,99.99
2019-05-29T01:50:43.326Z,99.99
2019-05-29T01:51:44.064Z,99.99
2019-05-29T01:52:43.751Z,99.99
2019-05-29T01:53:43.957Z,99.99
2019-05-29T01:54:44.124Z,99.99
2019-05-29T01:55:44.296Z,99.99
2019-05-29T01:56:44.456Z,99.99
2019-05-29T01:57:44.614Z,99.99
2019-05-29T01:58:44.809Z,99.99
2019-05-29T01:59:44.974Z,99.99
2019-05-29T02:00:45.576Z,99.99
2019-05-29T02:01:45.359Z,99.99
2019-05-29T02:02:45.526Z,99.99
2019-05-29T02:03:45.688Z,99.99
2019-05-29T02:04:45.850Z,99.99
2019-05-29T02:05:46.034Z,99.99
2019-05-29T02:06:46.218Z,99.99
2019-05-29T02:07:46.376Z,99.99
2019-05-29T02:08:46.534Z,99.99
2019-05-29T02:09:46.671Z,99.99
2019-05-29T02:11:19.269Z,99.99
2019-05-29T02:11:47.579Z,99.99
2019-05-29T02:12:47.239Z,99.99
2019-05-29T02:13:47.407Z,99.99
2019-05-29T02:14:48.069Z,99.99
2019-05-29T02:15:47.748Z,99.99
2019-05-29T02:16:48.088Z,99.99
2019-05-29T02:17:48.586Z,99.99
2019-05-29T02:18:48.366Z,99.99
2019-05-29T02:19:49.074Z,99.99
2019-05-29T02:20:48.758Z,99.99
2019-05-29T02:21:49.087Z,99.99
2019-05-29T02:22:49.150Z,99.99
2019-05-29T02:23:49.353Z,99.99
2019-05-29T02:24:50.082Z,99.99
2019-05-29T02:25:50.575Z,99.99
2019-05-29T02:26:49.876Z,99.99
2019-05-29T02:27:50.063Z,99.99
2019-05-29T02:28:50.299Z,99.99
2019-05-29T02:29:51.073Z,99.99
2019-05-29T02:30:50.738Z,99.99
2019-05-29T02:31:50.954Z,99.99
2019-05-29T02:32:51.143Z,99.99
2019-05-29T02:33:51.318Z,99.99
2019-05-29T02:34:51.488Z,99.99
2019-05-29T02:35:52.600Z,99.99
2019-05-29T02:36:51.882Z,99.99
2019-05-29T02:37:52.098Z,99.99
2019-05-29T02:38:52.291Z,99.99
2019-05-29T02:39:52.501Z,99.99
2019-05-29T02:40:53.577Z,99.99
2019-05-29T02:41:53.575Z,99.99
2019-05-29T02:42:53.124Z,99.99
2019-05-29T02:43:54.076Z,99.99
2019-05-29T02:44:53.456Z,99.99
2019-05-29T02:45:55.140Z,99.99
2019-05-29T02:46:54.803Z,99.99
2019-05-29T02:47:53.955Z,99.99
2019-05-29T02:48:54.124Z,99.99
2019-05-29T02:49:54.258Z,99.99
2019-05-29T02:50:54.407Z,99.99
2019-05-29T02:51:54.557Z,99.99
2019-05-29T02:52:54.734Z,99.99
2019-05-29T02:53:54.904Z,99.99
2019-05-29T02:54:55.577Z,99.99
2019-05-29T02:55:56.078Z,99.99
2019-05-29T02:56:55.350Z,99.99
2019-05-29T02:57:55.583Z,99.99
2019-05-29T02:58:55.758Z,99.99
2019-05-29T02:59:55.951Z,99.99
2019-05-29T03:00:56.120Z,99.99
2019-05-29T03:01:56.592Z,99.99
2019-05-29T03:02:57.092Z,99.99
2019-05-29T03:03:57.084Z,99.99
2019-05-29T03:04:56.993Z,99.99
2019-05-29T03:05:57.156Z,99.99
2019-05-29T03:06:57.326Z,99.99
2019-05-29T03:07:58.086Z,99.99
2019-05-29T03:08:58.081Z,99.99
2019-05-29T03:09:57.843Z,99.99
2019-05-29T03:10:58.085Z,99.99
2019-05-29T03:12:00.357Z,99.99
2019-05-29T03:12:59.296Z,99.99
2019-05-29T03:13:58.474Z,99.99
2019-05-29T03:14:59.585Z,99.99
2019-05-29T03:16:10.491Z,99.99
2019-05-29T03:16:59.979Z,99.99
2019-05-29T03:18:00.077Z,99.99
2019-05-29T03:19:34.539Z,99.99
2019-05-29T03:19:59.487Z,99.99
2019-05-29T03:20:59.647Z,99.99
2019-05-29T03:22:00.620Z,99.99
2019-05-29T03:23:00.017Z,99.99
2019-05-29T03:24:00.643Z,99.99
2019-05-29T03:25:00.426Z,99.99
2019-05-29T03:26:00.620Z,99.99
2019-05-29T03:27:00.759Z,99.99
2019-05-29T03:28:00.882Z,99.99
2019-05-29T03:29:01.019Z,99.99
2019-05-29T03:30:01.174Z,99.99
2019-05-29T03:31:02.378Z,99.99
2019-05-29T03:32:02.547Z,99.99
2019-05-29T03:33:01.669Z,99.99
2019-05-29T03:34:02.628Z,99.99
2019-05-29T03:35:02.136Z,99.99
2019-05-29T03:36:02.245Z,99.99
2019-05-29T03:37:02.483Z,99.99
2019-05-29T03:38:03.647Z,99.99
2019-05-29T03:39:02.879Z,99.99
2019-05-29T03:40:03.155Z,99.99
2019-05-29T03:41:03.305Z,99.99
2019-05-29T03:42:03.456Z,99.99
2019-05-29T03:43:03.595Z,99.99
2019-05-29T03:44:04.628Z,99.99
2019-05-29T03:45:04.131Z,99.99
2019-05-29T03:46:04.037Z,99.99
2019-05-29T03:47:05.119Z,99.99
2019-05-29T03:48:05.127Z,99.99
2019-05-29T03:49:04.501Z,99.99
2019-05-29T03:50:04.681Z,99.99
2019-05-29T03:51:05.143Z,99.99
2019-05-29T03:52:05.053Z,99.99
2019-05-29T03:53:38.655Z,99.99
2019-05-29T03:54:05.407Z,99.99
2019-05-29T03:55:05.556Z,99.99
2019-05-29T03:56:05.757Z,99.99
2019-05-29T03:57:05.912Z,99.99
2019-05-29T03:58:06.085Z,99.76
2019-05-29T03:59:07.156Z,99.96
2019-05-29T04:00:06.432Z,99.76
2019-05-29T04:01:06.772Z,99.99
2019-05-29T04:02:07.656Z,99.99
2019-05-29T04:03:06.924Z,99.99
2019-05-29T04:04:07.659Z,99.86
2019-05-29T04:05:07.334Z,99.99
2019-05-29T04:06:07.568Z,99.99
2019-05-29T04:07:07.625Z,99.99
2019-05-29T04:08:07.842Z,99.99
2019-05-29T04:09:08.652Z,99.99
2019-05-29T04:10:08.202Z,99.99
2019-05-29T04:11:08.729Z,99.99
2019-05-29T04:12:08.582Z,99.92
2019-05-29T04:13:08.789Z,99.99
2019-05-29T04:14:09.064Z,99.71
2019-05-29T04:15:09.122Z,99.99
2019-05-29T04:16:09.282Z,99.87
2019-05-29T04:17:09.465Z,99.52
2019-05-29T04:18:09.639Z,99.21
2019-05-29T04:19:09.774Z,98.85
2019-05-29T04:20:09.905Z,99.11
2019-05-29T04:21:10.647Z,96.53
2019-05-29T04:22:10.298Z,96.49
2019-05-29T04:23:10.458Z,96.81
2019-05-29T04:24:10.614Z,95.12
2019-05-29T04:25:11.224Z,93.84
2019-05-29T04:26:11.745Z,91.38
2019-05-29T04:27:43.517Z,92.71
2019-05-29T04:28:11.275Z,92.16
2019-05-29T04:29:11.708Z,93.12
2019-05-29T04:30:11.599Z,91.38
2019-05-29T04:31:12.698Z,90.80
2019-05-29T04:32:12.697Z,93.21
2019-05-29T04:33:12.708Z,92.76
2019-05-29T04:34:12.321Z,93.41
2019-05-29T04:35:12.458Z,92.49
2019-05-29T04:36:12.588Z,92.80
2019-05-29T04:37:13.687Z,93.48
2019-05-29T04:38:12.948Z,93.48
2019-05-29T04:39:14.094Z,92.82
2019-05-29T04:40:13.331Z,92.40
2019-05-29T04:41:13.474Z,92.57
2019-05-29T04:42:13.609Z,89.79
2019-05-29T04:43:13.776Z,89.83
2019-05-29T04:44:13.891Z,90.12
2019-05-29T04:45:14.068Z,89.36
2019-05-29T04:46:14.243Z,86.24
2019-05-29T04:47:15.190Z,85.62
2019-05-29T04:48:15.189Z,87.49
2019-05-29T04:49:14.766Z,86.69
2019-05-29T04:50:14.902Z,83.68
2019-05-29T04:51:15.047Z,82.56
2019-05-29T04:52:15.208Z,84.47
2019-05-29T04:53:15.381Z,84.60
2019-05-29T04:54:15.557Z,83.19
2019-05-29T04:55:15.761Z,82.78
2019-05-29T04:56:16.692Z,80.33
2019-05-29T04:57:16.699Z,80.60
2019-05-29T04:58:17.198Z,79.61
2019-05-29T04:59:17.216Z,77.76
2019-05-29T05:00:16.727Z,80.13
2019-05-29T05:01:50.169Z,81.54
2019-05-29T05:02:16.915Z,83.94
2019-05-29T05:03:17.089Z,83.98
2019-05-29T05:04:17.233Z,84.34
2019-05-29T05:05:19.545Z,84.04
2019-05-29T05:06:18.596Z,85.31
2019-05-29T05:07:18.733Z,85.82
2019-05-29T05:08:18.238Z,85.35
2019-05-29T05:09:18.743Z,86.09
2019-05-29T05:10:18.385Z,84.08
2019-05-29T05:11:18.516Z,84.08
2019-05-29T05:12:19.255Z,84.00
2019-05-29T05:13:19.741Z,83.14
2019-05-29T05:14:19.108Z,83.49
2019-05-29T05:15:19.287Z,83.10
2019-05-29T05:16:19.490Z,82.49
2019-05-29T05:17:26.154Z,83.00
2019-05-29T05:18:21.864Z,82.04
2019-05-29T05:19:19.977Z,82.48
2019-05-29T05:20:20.140Z,80.43
2019-05-29T05:21:20.760Z,81.49
2019-05-29T05:22:20.526Z,81.63
2019-05-29T05:23:20.710Z,82.08
2019-05-29T05:24:21.735Z,82.42
2019-05-29T05:25:21.044Z,83.55
2019-05-29T05:26:21.259Z,83.45
2019-05-29T05:27:21.453Z,83.65
2019-05-29T05:28:21.658Z,83.25
2019-05-29T05:29:21.838Z,83.59
2019-05-29T05:30:22.047Z,83.65
2019-05-29T05:31:22.290Z,84.64
2019-05-29T05:32:22.388Z,83.39
2019-05-29T05:33:23.241Z,81.13
2019-05-29T05:34:23.764Z,78.03
2019-05-29T05:35:57.183Z,78.11
2019-05-29T05:36:23.804Z,78.11
2019-05-29T05:37:23.292Z,80.02
2019-05-29T05:38:23.478Z,81.49
2019-05-29T05:39:24.013Z,80.98
2019-05-29T05:40:23.818Z,80.98
2019-05-29T05:41:24.032Z,81.62
2019-05-29T05:42:24.233Z,76.81
2019-05-29T05:43:24.741Z,77.62
2019-05-29T05:44:25.609Z,77.71
2019-05-29T05:45:24.758Z,76.01
2019-05-29T05:46:25.276Z,72.92
2019-05-29T05:47:43.033Z,72.08
2019-05-29T05:48:26.264Z,68.35
2019-05-29T05:49:26.267Z,67.71
2019-05-29T05:50:25.536Z,68.52
2019-05-29T05:51:25.730Z,67.20
2019-05-29T05:52:26.773Z,70.25
2019-05-29T05:53:26.040Z,69.64
2019-05-29T05:54:26.269Z,70.04
2019-05-29T05:55:27.272Z,70.04
2019-05-29T05:56:26.710Z,68.32
2019-05-29T05:57:26.885Z,67.88
2019-05-29T05:58:27.051Z,70.15
2019-05-29T05:59:27.782Z,69.23
2019-05-29T06:00:27.439Z,64.52
2019-05-29T06:01:27.689Z,66.72
2019-05-29T06:02:27.864Z,71.06
2019-05-29T06:03:27.990Z,70.95
2019-05-29T06:04:28.181Z,73.91
2019-05-29T06:05:29.304Z,74.85
2019-05-29T06:06:28.572Z,69.93
2019-05-29T06:07:28.745Z,71.43
2019-05-29T06:08:29.286Z,72.89
2019-05-29T06:10:03.201Z,72.17
2019-05-29T06:10:29.800Z,74.15
2019-05-29T06:11:29.310Z,73.91
2019-05-29T06:12:30.309Z,71.33
2019-05-29T06:13:29.834Z,72.04
2019-05-29T06:14:29.873Z,73.13
2019-05-29T06:15:30.035Z,73.02
2019-05-29T06:16:30.190Z,71.36
2019-05-29T06:17:30.371Z,71.47
2019-05-29T06:18:30.584Z,72.14
2019-05-29T06:19:30.806Z,72.96
2019-05-29T06:20:30.979Z,69.29
2019-05-29T06:21:31.175Z,72.89
2019-05-29T06:22:32.805Z,68.92
2019-05-29T06:23:32.700Z,71.97
2019-05-29T06:24:33.449Z,69.06
2019-05-29T06:25:33.625Z,68.75
2019-05-29T06:26:32.807Z,68.07
2019-05-29T06:27:33.527Z,70.95
2019-05-29T06:28:33.299Z,70.04
2019-05-29T06:29:33.502Z,69.26
2019-05-29T06:30:34.455Z,71.09
2019-05-29T06:31:35.141Z,74.58
2019-05-29T06:32:33.484Z,67.46
2019-05-29T06:33:35.231Z,70.96
2019-05-29T06:34:33.551Z,66.05
2019-05-29T06:35:35.886Z,66.05
2019-05-29T06:36:35.543Z,67.94
2019-05-29T06:37:33.891Z,70.95
2019-05-29T06:38:34.077Z,71.87
2019-05-29T06:39:35.231Z,72.28
2019-05-29T06:40:36.086Z,65.39
2019-05-29T06:41:35.686Z,71.47
2019-05-29T06:42:35.729Z,68.35
2019-05-29T06:43:35.761Z,68.55
2019-05-29T06:44:36.595Z,65.23
2019-05-29T06:45:35.777Z,65.84
2019-05-29T06:46:36.203Z,66.89
2019-05-29T06:47:36.577Z,68.38
2019-05-29T06:48:46.193Z,69.26
2019-05-29T06:49:37.992Z,69.67
2019-05-29T06:50:37.262Z,69.16
2019-05-29T06:51:37.091Z,71.36
2019-05-29T06:52:37.398Z,70.72
2019-05-29T06:53:37.741Z,66.55
2019-05-29T06:54:37.882Z,67.30
2019-05-29T06:55:39.743Z,66.05
2019-05-29T06:56:37.728Z,67.88
2019-05-29T06:57:38.113Z,68.59
2019-05-29T06:58:38.068Z,68.18
2019-05-29T06:59:38.229Z,68.69
2019-05-29T07:00:39.340Z,68.79
2019-05-29T07:01:39.284Z,65.57
2019-05-29T07:02:38.533Z,71.19
2019-05-29T07:03:39.597Z,67.71
2019-05-29T07:04:40.375Z,68.49
2019-05-29T07:05:39.794Z,69.64
2019-05-29T07:06:38.911Z,64.29
2019-05-29T07:07:40.328Z,65.04
2019-05-29T07:08:44.424Z,70.56
2019-05-29T07:09:41.442Z,62.24
2019-05-29T07:10:40.285Z,62.11
2019-05-29T07:11:39.884Z,65.12
2019-05-29T07:12:40.446Z,63.18
2019-05-29T07:13:43.953Z,65.24
2019-05-29T07:14:44.463Z,63.34
2019-05-29T07:15:42.902Z,64.73
2019-05-29T07:16:49.845Z,64.84
2019-05-29T07:17:42.442Z,64.43
2019-05-29T07:19:17.275Z,64.29
2019-05-29T07:19:53.908Z,65.27
2019-05-29T07:20:43.484Z,65.78
2019-05-29T07:21:42.794Z,63.04
2019-05-29T07:22:43.014Z,66.43
2019-05-29T07:23:46.133Z,65.21
2019-05-29T07:24:43.504Z,61.46
2019-05-29T07:25:43.441Z,63.62
2019-05-29T07:26:43.492Z,65.95
2019-05-29T07:27:42.927Z,63.56
2019-05-29T07:29:05.641Z,64.70
2019-05-29T07:29:45.295Z,63.23
2019-05-29T07:30:49.624Z,64.13
2019-05-29T07:31:45.068Z,66.43
2019-05-29T07:32:51.392Z,60.95
2019-05-29T07:33:47.303Z,61.43
2019-05-29T07:34:59.430Z,59.12
2019-05-29T07:35:46.046Z,59.92
2019-05-29T07:36:44.212Z,63.42
2019-05-29T07:37:45.822Z,64.13
2019-05-29T07:38:54.925Z,61.49
2019-05-29T07:39:47.707Z,69.81
2019-05-29T07:40:47.502Z,61.40
2019-05-29T07:41:46.066Z,57.24
2019-05-29T07:42:50.543Z,59.12
2019-05-29T07:43:48.080Z,62.85
2019-05-29T07:44:46.307Z,57.12
2019-05-29T07:45:46.115Z,64.20
2019-05-29T07:46:47.171Z,57.65
2019-05-29T07:47:46.758Z,58.36
2019-05-29T07:48:49.767Z,55.60
2019-05-29T07:49:49.052Z,57.73
2019-05-29T07:50:48.418Z,56.84
2019-05-29T07:51:48.648Z,58.16
2019-05-29T07:52:47.456Z,58.13
2019-05-29T07:53:48.758Z,56.94
2019-05-29T07:54:48.077Z,55.35
2019-05-29T07:55:49.046Z,57.90
2019-05-29T07:56:49.330Z,59.65
2019-05-29T07:57:49.003Z,62.49
2019-05-29T07:59:01.766Z,60.00
2019-05-29T07:59:51.334Z,54.69
2019-05-29T08:01:09.974Z,57.60
2019-05-29T08:01:50.699Z,58.54
2019-05-29T08:02:49.508Z,58.26
2019-05-29T08:03:49.782Z,59.09
2019-05-29T08:04:50.147Z,56.07
2019-05-29T08:05:52.760Z,59.61
2019-05-29T08:06:54.310Z,56.48
2019-05-29T08:07:50.661Z,52.76
2019-05-29T08:08:49.803Z,56.13
2019-05-29T08:09:50.019Z,59.17
2019-05-29T08:10:50.185Z,58.56
2019-05-29T08:11:50.363Z,53.17
2019-05-29T08:12:55.201Z,54.58
2019-05-29T08:13:52.711Z,59.28
2019-05-29T08:14:51.369Z,57.76
2019-05-29T08:16:02.051Z,53.78
2019-05-29T08:16:53.198Z,60.55
2019-05-29T08:17:51.330Z,51.32
2019-05-29T08:18:52.932Z,55.32
2019-05-29T08:20:03.162Z,52.19
2019-05-29T08:20:53.777Z,54.94
2019-05-29T08:21:52.843Z,58.99
2019-05-29T08:22:52.096Z,52.48
2019-05-29T08:23:52.273Z,55.04
2019-05-29T08:24:52.456Z,53.78
2019-05-29T08:25:52.642Z,58.20
2019-05-29T08:26:52.824Z,57.11
2019-05-29T08:27:52.985Z,55.27
2019-05-29T08:28:53.186Z,52.03
2019-05-29T08:29:53.347Z,57.64
2019-05-29T08:30:56.577Z,56.35
2019-05-29T08:31:54.709Z,49.16
2019-05-29T08:32:53.852Z,56.77
2019-05-29T08:33:54.017Z,51.81
2019-05-29T08:34:54.191Z,50.62
2019-05-29T08:35:59.945Z,51.71
2019-05-29T08:37:06.230Z,54.53
2019-05-29T08:37:56.733Z,52.62
2019-05-29T08:38:54.983Z,51.89
2019-05-29T08:39:57.445Z,51.46
2019-05-29T08:40:55.315Z,48.69
2019-05-29T08:42:21.039Z,49.74
2019-05-29T08:42:58.348Z,51.73
2019-05-29T08:43:55.855Z,48.60
2019-05-29T08:44:56.401Z,53.85
2019-05-29T08:45:56.182Z,53.96
2019-05-29T08:47:09.182Z,54.00
2019-05-29T08:47:57.597Z,54.00
2019-05-29T08:48:56.787Z,54.41
2019-05-29T08:50:16.810Z,53.98
2019-05-29T08:50:59.105Z,48.98
2019-05-29T08:52:11.091Z,48.27
2019-05-29T08:53:02.412Z,53.98
2019-05-29T08:53:57.692Z,51.35
2019-05-29T08:54:57.880Z,47.95
2019-05-29T08:55:58.096Z,49.71
2019-05-29T08:56:58.216Z,49.81
2019-05-29T08:57:58.388Z,48.95
2019-05-29T08:58:58.623Z,50.32
2019-05-29T08:59:58.851Z,52.23
2019-05-29T09:00:59.855Z,50.04
2019-05-29T09:01:59.143Z,47.49
2019-05-29T09:02:59.351Z,50.39
2019-05-29T09:03:59.543Z,47.30
2019-05-29T09:04:59.762Z,47.47
2019-05-29T09:06:08.602Z,49.97
2019-05-29T09:07:02.222Z,46.75
2019-05-29T09:08:00.850Z,47.66
2019-05-29T09:09:00.510Z,46.30
2019-05-29T09:10:00.715Z,47.38
2019-05-29T09:11:00.889Z,46.69
2019-05-29T09:12:01.034Z,47.70
2019-05-29T09:13:04.862Z,50.57
2019-05-29T09:14:02.419Z,49.67
2019-05-29T09:15:01.706Z,48.86
2019-05-29T09:16:01.875Z,51.16
2019-05-29T09:17:02.083Z,48.58
2019-05-29T09:18:02.278Z,50.15
2019-05-29T09:19:02.449Z,55.07
2019-05-29T09:20:02.593Z,49.28
2019-05-29T09:21:03.972Z,51.25
2019-05-29T09:22:03.997Z,54.89
2019-05-29T09:23:03.858Z,52.64
2019-05-29T09:24:03.244Z,54.28
2019-05-29T09:25:03.455Z,52.29
2019-05-29T09:26:14.269Z,51.89
2019-05-29T09:27:05.847Z,51.64
2019-05-29T09:28:04.858Z,54.48
2019-05-29T09:29:04.115Z,52.54
2019-05-29T09:30:04.296Z,55.79
2019-05-29T09:31:04.452Z,51.81
2019-05-29T09:32:04.645Z,52.62
2019-05-29T09:33:04.825Z,52.92
2019-05-29T09:34:04.985Z,51.86
2019-05-29T09:35:05.161Z,53.83
2019-05-29T09:36:05.351Z,52.11
2019-05-29T09:37:05.881Z,54.21
2019-05-29T09:38:06.356Z,52.11
2019-05-29T09:39:05.899Z,49.19
2019-05-29T09:40:06.065Z,47.40
2019-05-29T09:41:06.261Z,47.83
2019-05-29T09:42:06.880Z,55.24
2019-05-29T09:43:07.446Z,52.92
2019-05-29T09:44:06.999Z,49.19
2019-05-29T09:45:07.073Z,49.62
2019-05-29T09:46:07.262Z,53.12
2019-05-29T09:47:07.478Z,46.67
2019-05-29T09:48:07.713Z,50.17
2019-05-29T09:49:08.387Z,50.17
2019-05-29T09:50:08.893Z,47.41
2019-05-29T09:51:20.550Z,45.44
2019-05-29T09:52:10.284Z,46.53
2019-05-29T09:53:08.439Z,50.23
2019-05-29T09:54:08.627Z,47.96
2019-05-29T09:55:09.367Z,48.61
2019-05-29T09:56:09.012Z,49.24
2019-05-29T09:57:09.222Z,47.36
2019-05-29T09:58:09.410Z,46.83
2019-05-29T09:59:10.410Z,49.35
2019-05-29T10:00:10.369Z,49.21
2019-05-29T10:01:22.857Z,50.35
2019-05-29T10:02:12.127Z,55.66
2019-05-29T10:03:10.297Z,51.64
2019-05-29T10:04:10.476Z,51.40
2019-05-29T10:05:10.628Z,52.09
2019-05-29T10:06:10.799Z,51.16
2019-05-29T10:07:10.974Z,52.19
2019-05-29T10:08:11.206Z,48.95
2019-05-29T10:09:11.333Z,49.88
2019-05-29T10:10:11.526Z,47.89
2019-05-29T10:11:11.717Z,50.23
2019-05-29T10:12:11.903Z,51.54
2019-05-29T10:13:12.119Z,53.75
2019-05-29T10:14:12.283Z,49.24
2019-05-29T10:15:12.475Z,48.74
2019-05-29T10:16:12.649Z,51.64
2019-05-29T10:17:13.504Z,46.64
2019-05-29T10:18:30.413Z,50.28
2019-05-29T10:19:15.216Z,47.59
2019-05-29T10:20:14.383Z,47.96
2019-05-29T10:21:13.519Z,50.45
2019-05-29T10:22:13.900Z,52.26
2019-05-29T10:23:13.866Z,48.00
2019-05-29T10:24:13.994Z,49.69
2019-05-29T10:25:14.136Z,49.65
2019-05-29T10:26:14.269Z,50.37
2019-05-29T10:27:14.401Z,50.76
2019-05-29T10:28:14.886Z,52.62
2019-05-29T10:29:14.770Z,48.25
2019-05-29T10:30:14.901Z,46.54
2019-05-29T10:31:15.061Z,49.37
2019-05-29T10:32:15.207Z,52.22
2019-05-29T10:33:15.362Z,48.61
2019-05-29T10:34:15.574Z,47.75
2019-05-29T10:35:15.776Z,50.37
2019-05-29T10:36:15.904Z,48.76
2019-05-29T10:37:18.404Z,52.59
2019-05-29T10:38:17.875Z,48.86
2019-05-29T10:39:16.369Z,49.12
2019-05-29T10:40:16.507Z,52.26
2019-05-29T10:41:16.681Z,53.40
2019-05-29T10:42:20.460Z,51.51
2019-05-29T10:43:33.250Z,53.09
2019-05-29T10:44:19.141Z,44.95
2019-05-29T10:45:17.233Z,45.13
2019-05-29T10:46:17.920Z,47.66
2019-05-29T10:47:17.603Z,50.26
2019-05-29T10:48:17.780Z,44.83
2019-05-29T10:49:17.955Z,44.47
2019-05-29T10:50:18.098Z,48.87
2019-05-29T10:51:18.278Z,49.18
2019-05-29T10:52:18.391Z,48.79
2019-05-29T10:53:18.625Z,50.28
2019-05-29T10:54:18.797Z,50.73
2019-05-29T10:55:18.952Z,49.05
2019-05-29T10:56:21.204Z,49.90
2019-05-29T10:57:20.235Z,49.32
2019-05-29T10:58:19.452Z,46.47
2019-05-29T10:59:19.660Z,51.20
2019-05-29T11:00:20.833Z,49.73
2019-05-29T11:01:20.897Z,50.02
2019-05-29T11:02:20.159Z,46.54
2019-05-29T11:03:20.332Z,42.90
2019-05-29T11:04:20.475Z,45.31
2019-05-29T11:05:20.660Z,46.94
2019-05-29T11:06:21.797Z,46.64
2019-05-29T11:07:20.937Z,45.45
2019-05-29T11:08:21.106Z,46.12
2019-05-29T11:09:21.271Z,46.37
2019-05-29T11:10:21.432Z,44.79
2019-05-29T11:11:21.593Z,48.66
2019-05-29T11:12:21.792Z,46.35
2019-05-29T11:13:21.970Z,47.35
2019-05-29T11:14:22.142Z,47.54
2019-05-29T11:15:22.305Z,47.49
2019-05-29T11:16:22.462Z,49.80
2019-05-29T11:17:22.644Z,48.69
2019-05-29T11:18:22.799Z,49.42
2019-05-29T11:19:26.097Z,49.15
2019-05-29T11:20:24.195Z,55.31
2019-05-29T11:21:23.368Z,48.98
2019-05-29T11:22:26.601Z,47.54
2019-05-29T11:23:24.668Z,48.68
2019-05-29T11:24:23.792Z,50.11
2019-05-29T11:25:27.575Z,45.60
2019-05-29T11:26:25.136Z,45.45
2019-05-29T11:27:26.134Z,46.64
2019-05-29T11:28:25.902Z,44.95
2019-05-29T11:29:24.666Z,48.02
2019-05-29T11:30:25.398Z,44.40
2019-05-29T11:31:25.065Z,43.50
2019-05-29T11:32:25.289Z,43.70
2019-05-29T11:33:25.458Z,43.68
2019-05-29T11:34:25.634Z,48.48
2019-05-29T11:35:25.790Z,44.59
2019-05-29T11:36:26.903Z,46.81
2019-05-29T11:37:26.421Z,45.63
2019-05-29T11:38:26.313Z,48.95
2019-05-29T11:39:26.439Z,49.18
2019-05-29T11:40:26.578Z,46.23
2019-05-29T11:41:26.960Z,46.04
2019-05-29T11:42:28.323Z,44.30
2019-05-29T11:43:28.908Z,44.34
2019-05-29T11:44:27.295Z,49.16
2019-05-29T11:45:27.457Z,43.98
2019-05-29T11:46:27.613Z,45.34
2019-05-29T11:47:27.827Z,43.41
2019-05-29T11:48:28.911Z,42.52
2019-05-29T11:49:28.183Z,42.66
2019-05-29T11:50:28.360Z,46.50
2019-05-29T11:51:29.295Z,47.99
2019-05-29T11:52:41.702Z,43.76
2019-05-29T11:53:30.951Z,44.35
2019-05-29T11:54:29.101Z,41.38
2019-05-29T11:55:29.248Z,42.82
2019-05-29T11:56:29.410Z,39.51
2019-05-29T11:57:29.587Z,42.57
2019-05-29T11:58:31.597Z,43.58
2019-05-29T11:59:30.958Z,45.04
2019-05-29T12:00:30.928Z,46.87
2019-05-29T12:01:48.632Z,47.55
2019-05-29T12:02:31.462Z,44.24
2019-05-29T12:03:30.614Z,44.92
2019-05-29T12:04:30.785Z,46.44
2019-05-29T12:05:30.961Z,43.26
2019-05-29T12:06:31.178Z,45.30
2019-05-29T12:07:31.354Z,46.03
2019-05-29T12:08:32.419Z,47.50
2019-05-29T12:09:33.524Z,49.53
2019-05-29T12:10:32.887Z,46.73
2019-05-29T12:11:32.031Z,49.89
2019-05-29T12:12:32.191Z,49.52
2019-05-29T12:13:32.916Z,37.71
2019-05-29T12:14:32.573Z,42.35
2019-05-29T12:15:32.800Z,39.46
2019-05-29T12:16:32.947Z,41.19
2019-05-29T12:17:33.970Z,40.55
2019-05-29T12:18:33.313Z,41.39
2019-05-29T12:19:33.477Z,42.07
2019-05-29T12:20:33.671Z,40.55
2019-05-29T12:21:33.808Z,45.06
2019-05-29T12:22:33.965Z,42.76
2019-05-29T12:23:34.114Z,42.57
2019-05-29T12:24:34.256Z,44.58
2019-05-29T12:25:34.469Z,48.86
2019-05-29T12:26:34.640Z,44.21
2019-05-29T12:27:34.782Z,45.77
2019-05-29T12:28:34.943Z,41.49
2019-05-29T12:29:35.108Z,44.93
2019-05-29T12:30:35.252Z,42.85
2019-05-29T12:31:35.434Z,44.25
2019-05-29T12:32:35.567Z,44.04
2019-05-29T12:33:35.715Z,41.11
2019-05-29T12:34:35.862Z,46.23
2019-05-29T12:35:36.923Z,42.94
2019-05-29T12:36:36.186Z,43.88
2019-05-29T12:37:36.323Z,46.47
2019-05-29T12:38:36.942Z,44.54
2019-05-29T12:39:36.708Z,43.08
2019-05-29T12:40:36.848Z,44.04
2019-05-29T12:41:37.075Z,42.02
2019-05-29T12:42:37.245Z,39.37
2019-05-29T12:43:37.397Z,39.20
2019-05-29T12:44:37.551Z,41.47
2019-05-29T12:45:38.438Z,36.52
2019-05-29T12:46:37.926Z,37.81
2019-05-29T12:47:38.071Z,34.73
2019-05-29T12:48:38.259Z,36.44
2019-05-29T12:49:38.594Z,36.64
2019-05-29T12:50:38.531Z,36.69
2019-05-29T12:51:38.704Z,38.12
2019-05-29T12:52:38.862Z,43.48
2019-05-29T12:53:39.061Z,43.32
2019-05-29T12:54:39.208Z,41.49